createdAt,value
2018-04-30T00:02:16.345Z,18.40
2018-04-30T00:04:44.565Z,18.30
2018-04-30T00:07:12.786Z,18.50
2018-04-30T00:09:41.833Z,18.70
2018-04-30T00:12:10.062Z,18.60
2018-04-30T00:14:38.273Z,18.30
2018-04-30T00:17:06.495Z,18.20
2018-04-30T00:19:34.709Z,18.00
2018-04-30T00:22:02.925Z,18.30
2018-04-30T00:24:31.167Z,18.40
2018-04-30T00:27:00.126Z,18.60
2018-04-30T00:29:28.422Z,18.50
2018-04-30T00:31:56.575Z,18.60
2018-04-30T00:34:24.797Z,18.30
2018-04-30T00:36:53.784Z,18.60
2018-04-30T00:39:21.989Z,18.50
2018-04-30T00:41:50.965Z,18.50
2018-04-30T00:44:19.191Z,18.50
2018-04-30T00:46:48.164Z,18.80
2018-04-30T00:49:16.405Z,18.80
2018-04-30T00:51:44.641Z,18.70
2018-04-30T00:54:24.740Z,18.80
2018-04-30T00:56:53.720Z,18.60
2018-04-30T00:59:22.002Z,18.60
2018-04-30T01:01:50.202Z,18.10
2018-04-30T01:04:18.414Z,18.10
2018-04-30T01:06:47.406Z,18.30
2018-04-30T01:09:16.412Z,17.90
2018-04-30T01:11:45.393Z,18.00
2018-04-30T01:14:13.616Z,17.90
2018-04-30T01:16:42.599Z,17.90
2018-04-30T01:19:10.814Z,17.90
2018-04-30T01:21:39.045Z,17.90
2018-04-30T01:24:07.265Z,18.30
2018-04-30T01:26:35.481Z,18.20
2018-04-30T01:29:03.701Z,18.20
2018-04-30T01:31:31.914Z,17.90
2018-04-30T01:34:00.130Z,18.00
2018-04-30T01:36:29.129Z,18.50
2018-04-30T01:38:58.106Z,18.10
2018-04-30T01:41:26.313Z,18.10
2018-04-30T01:43:54.537Z,18.30
2018-04-30T01:46:22.756Z,18.50
2018-04-30T01:48:50.994Z,18.70
2018-04-30T01:51:19.981Z,18.20
2018-04-30T01:53:48.993Z,18.30
2018-04-30T01:56:17.199Z,18.40
2018-04-30T01:58:45.448Z,18.20
2018-04-30T02:01:13.645Z,18.30
2018-04-30T02:03:42.640Z,18.60
2018-04-30T02:06:10.866Z,18.50
2018-04-30T02:08:39.069Z,18.40
2018-04-30T02:11:07.298Z,18.20
2018-04-30T02:13:35.514Z,17.60
2018-04-30T02:16:04.494Z,18.20
2018-04-30T02:18:32.709Z,18.20
2018-04-30T02:21:01.688Z,18.50
2018-04-30T02:23:29.896Z,18.50
2018-04-30T02:25:58.884Z,18.70
2018-04-30T02:28:27.108Z,18.70
2018-04-30T02:30:55.325Z,18.70
2018-04-30T02:33:23.549Z,18.60
2018-04-30T02:35:51.781Z,18.70
2018-04-30T02:38:20.019Z,18.70
2018-04-30T02:40:48.249Z,18.70
2018-04-30T02:43:16.474Z,18.70
2018-04-30T02:45:44.710Z,18.70
2018-04-30T02:48:13.693Z,18.60
2018-04-30T02:50:41.924Z,18.60
2018-04-30T02:53:10.153Z,18.50
2018-04-30T02:55:38.383Z,18.70
2018-04-30T02:58:07.382Z,18.80
2018-04-30T03:00:36.366Z,18.90
2018-04-30T03:03:04.631Z,18.80
2018-04-30T03:05:32.826Z,18.70
2018-04-30T03:08:01.049Z,18.70
2018-04-30T03:10:30.033Z,18.70
2018-04-30T03:12:58.358Z,18.70
2018-04-30T03:15:26.577Z,18.80
2018-04-30T03:17:54.804Z,18.70
2018-04-30T03:20:23.417Z,18.80
2018-04-30T03:22:51.605Z,18.80
2018-04-30T03:25:20.593Z,18.70
2018-04-30T03:27:48.825Z,18.70
2018-04-30T03:30:17.067Z,18.70
2018-04-30T03:32:45.292Z,18.70
2018-04-30T03:35:13.534Z,18.70
2018-04-30T03:37:41.745Z,18.80
2018-04-30T03:40:10.731Z,18.70
2018-04-30T03:42:38.949Z,18.80
2018-04-30T03:45:07.184Z,18.80
2018-04-30T03:47:35.421Z,18.70
2018-04-30T03:50:04.405Z,18.90
2018-04-30T03:52:32.629Z,18.80
2018-04-30T03:55:00.861Z,18.60
2018-04-30T03:57:29.080Z,18.70
2018-04-30T03:59:57.305Z,18.60
2018-04-30T04:02:37.354Z,18.10
2018-04-30T04:05:17.617Z,18.50
2018-04-30T04:07:45.863Z,18.20
2018-04-30T04:10:14.080Z,18.30
2018-04-30T04:12:43.082Z,18.10
2018-04-30T04:15:11.277Z,18.10
2018-04-30T04:17:40.258Z,18.30
2018-04-30T04:20:08.677Z,18.30
2018-04-30T04:22:37.666Z,18.80
2018-04-30T04:25:05.873Z,18.80
2018-04-30T04:27:34.859Z,18.70
2018-04-30T04:30:03.074Z,18.70
2018-04-30T04:32:32.077Z,18.80
2018-04-30T04:35:01.048Z,18.70
2018-04-30T04:37:29.264Z,18.70
2018-04-30T04:39:58.261Z,18.80
2018-04-30T04:42:26.484Z,18.90
2018-04-30T04:44:54.715Z,18.90
2018-04-30T04:47:23.702Z,18.60
2018-04-30T04:49:51.933Z,18.60
2018-04-30T04:52:20.931Z,18.70
2018-04-30T04:54:49.155Z,18.70
2018-04-30T04:57:17.381Z,18.80
2018-04-30T04:59:45.621Z,18.90
2018-04-30T05:02:13.845Z,18.80
2018-04-30T05:04:42.085Z,18.70
2018-04-30T05:07:11.064Z,18.90
2018-04-30T05:09:39.282Z,18.90
2018-04-30T05:12:08.375Z,18.90
2018-04-30T05:14:36.564Z,18.90
2018-04-30T05:17:05.575Z,18.90
2018-04-30T05:19:33.793Z,18.90
2018-04-30T05:22:02.006Z,18.90
2018-04-30T05:24:30.209Z,18.90
2018-04-30T05:26:58.433Z,18.80
2018-04-30T05:29:27.413Z,18.10
2018-04-30T05:31:55.625Z,18.10
2018-04-30T05:34:24.618Z,17.20
2018-04-30T05:36:53.613Z,16.70
2018-04-30T05:39:21.893Z,16.70
2018-04-30T05:41:50.201Z,16.40
2018-04-30T05:44:18.408Z,16.40
2018-04-30T05:46:46.651Z,17.40
2018-04-30T05:49:14.877Z,17.40
2018-04-30T05:51:43.862Z,17.50
2018-04-30T05:54:12.093Z,17.50
2018-04-30T05:56:40.304Z,17.70
2018-04-30T05:59:08.589Z,18.10
2018-04-30T06:01:36.808Z,18.10
2018-04-30T06:04:05.030Z,18.20
2018-04-30T06:06:34.049Z,18.30
2018-04-30T06:09:02.260Z,18.30
2018-04-30T06:11:30.501Z,18.10
2018-04-30T06:13:58.710Z,18.20
2018-04-30T06:16:26.973Z,18.10
2018-04-30T06:18:55.217Z,18.10
2018-04-30T06:21:23.438Z,18.40
2018-04-30T06:23:51.656Z,18.30
2018-04-30T06:26:19.893Z,18.10
2018-04-30T06:28:48.199Z,17.70
2018-04-30T06:31:16.437Z,17.60
2018-04-30T06:33:44.656Z,17.80
2018-04-30T06:36:12.883Z,17.80
2018-04-30T06:38:41.856Z,17.90
2018-04-30T06:41:10.081Z,17.90
2018-04-30T06:43:39.080Z,18.10
2018-04-30T06:46:08.097Z,18.00
2018-04-30T06:48:37.068Z,17.80
2018-04-30T06:51:05.280Z,17.80
2018-04-30T06:53:34.312Z,17.90
2018-04-30T06:56:02.497Z,17.90
2018-04-30T06:58:30.758Z,17.80
2018-04-30T07:00:59.772Z,17.90
2018-04-30T07:03:27.969Z,17.90
2018-04-30T07:05:56.201Z,18.20
2018-04-30T07:08:24.412Z,18.00
2018-04-30T07:10:52.639Z,18.10
2018-04-30T07:13:20.861Z,18.00
2018-04-30T07:15:49.105Z,18.10
2018-04-30T07:18:17.382Z,18.10
2018-04-30T07:20:45.680Z,18.00
2018-04-30T07:23:13.908Z,17.90
2018-04-30T07:25:42.129Z,18.00
2018-04-30T07:28:10.346Z,18.10
2018-04-30T07:30:38.556Z,18.50
2018-04-30T07:33:06.788Z,18.40
2018-04-30T07:35:35.007Z,18.40
2018-04-30T07:38:03.234Z,18.30
2018-04-30T07:40:31.466Z,18.20
2018-04-30T07:43:00.462Z,18.20
2018-04-30T07:45:28.775Z,18.20
2018-04-30T07:47:57.772Z,18.10
2018-04-30T07:50:26.773Z,17.90
2018-04-30T07:52:54.998Z,17.90
2018-04-30T07:55:23.245Z,18.10
2018-04-30T07:57:51.495Z,18.20
2018-04-30T08:00:19.739Z,18.10
2018-04-30T08:02:48.741Z,17.80
2018-04-30T08:05:17.733Z,17.90
2018-04-30T08:07:46.781Z,17.80
2018-04-30T08:10:15.014Z,17.80
2018-04-30T08:12:43.232Z,17.90
2018-04-30T08:15:12.835Z,18.00
2018-04-30T08:17:41.150Z,18.00
2018-04-30T08:20:09.324Z,18.00
2018-04-30T08:22:38.337Z,18.20
2018-04-30T08:25:07.887Z,18.20
2018-04-30T08:27:38.950Z,18.00
2018-04-30T08:30:07.989Z,18.00
2018-04-30T08:32:36.936Z,17.90
2018-04-30T08:35:05.936Z,17.90
2018-04-30T08:37:34.914Z,18.10
2018-04-30T08:40:03.906Z,18.00
2018-04-30T08:42:32.141Z,18.00
2018-04-30T08:45:03.272Z,17.90
2018-04-30T08:47:32.414Z,17.90
2018-04-30T08:50:00.848Z,17.90
2018-04-30T08:52:29.061Z,18.00
2018-04-30T08:54:58.054Z,17.90
2018-04-30T08:57:29.572Z,17.90
2018-04-30T08:59:59.874Z,17.80
2018-04-30T09:02:31.949Z,17.80
2018-04-30T09:05:00.158Z,17.80
2018-04-30T09:07:28.396Z,17.80
2018-04-30T09:09:56.613Z,17.90
2018-04-30T09:12:25.529Z,17.90
2018-04-30T09:14:53.907Z,17.90
2018-04-30T09:17:22.105Z,17.90
2018-04-30T09:19:50.356Z,17.90
2018-04-30T09:22:18.607Z,17.90
2018-04-30T09:24:46.899Z,17.80
2018-04-30T09:27:15.382Z,17.80
2018-04-30T09:29:43.642Z,17.80
2018-04-30T09:32:12.913Z,17.90
2018-04-30T09:34:41.137Z,17.90
2018-04-30T09:37:10.161Z,17.90
2018-04-30T09:39:39.160Z,17.90
2018-04-30T09:42:08.156Z,17.90
2018-04-30T09:44:37.159Z,17.90
2018-04-30T09:47:06.177Z,17.90
2018-04-30T09:49:35.181Z,17.80
2018-04-30T09:52:03.392Z,17.80
2018-04-30T09:54:32.848Z,17.80
2018-04-30T09:57:01.021Z,17.80
2018-04-30T09:59:30.669Z,17.80
2018-04-30T10:01:59.686Z,17.70
2018-04-30T10:04:27.935Z,17.60
2018-04-30T10:06:56.189Z,17.60
2018-04-30T10:09:24.393Z,17.60
2018-04-30T10:11:52.639Z,17.70
2018-04-30T10:14:20.869Z,17.70
2018-04-30T10:16:49.879Z,17.50
2018-04-30T10:19:19.316Z,17.50
2018-04-30T10:21:48.478Z,17.50
2018-04-30T10:24:18.360Z,17.50
2018-04-30T10:26:46.685Z,17.40
2018-04-30T10:29:15.685Z,17.50
2018-04-30T10:31:44.806Z,17.40
2018-04-30T10:34:12.943Z,17.40
2018-04-30T10:36:41.157Z,17.40
2018-04-30T10:39:09.393Z,17.30
2018-04-30T10:41:37.613Z,17.20
2018-04-30T10:44:05.845Z,17.20
2018-04-30T10:46:34.835Z,17.10
2018-04-30T10:49:03.831Z,17.00
2018-04-30T10:51:32.171Z,17.00
2018-04-30T10:54:00.317Z,17.10
2018-04-30T10:56:29.317Z,17.20
2018-04-30T10:58:57.563Z,17.20
2018-04-30T11:01:25.793Z,17.20
2018-04-30T11:03:54.022Z,17.20
2018-04-30T11:06:22.272Z,17.10
2018-04-30T11:08:50.493Z,17.10
2018-04-30T11:11:18.733Z,17.30
2018-04-30T11:13:46.958Z,17.20
2018-04-30T11:16:15.197Z,17.30
2018-04-30T11:18:44.248Z,17.40
2018-04-30T11:21:13.237Z,17.40
2018-04-30T11:23:42.254Z,17.40
2018-04-30T11:26:11.255Z,17.20
2018-04-30T11:28:40.243Z,17.20
2018-04-30T11:31:08.477Z,17.20
2018-04-30T11:33:36.705Z,17.30
2018-04-30T11:36:05.009Z,17.10
2018-04-30T11:38:34.817Z,17.00
2018-04-30T11:41:03.051Z,17.00
2018-04-30T11:43:32.589Z,16.70
2018-04-30T11:46:00.828Z,16.70
2018-04-30T11:48:29.052Z,16.70
2018-04-30T11:50:57.269Z,16.70
2018-04-30T11:53:26.565Z,16.70
2018-04-30T11:55:54.816Z,16.60
2018-04-30T11:58:23.105Z,16.50
2018-04-30T12:00:51.350Z,16.40
2018-04-30T12:03:19.573Z,16.30
2018-04-30T12:05:47.804Z,16.40
2018-04-30T12:08:16.057Z,16.30
2018-04-30T12:10:45.150Z,16.30
2018-04-30T12:13:13.345Z,16.30
2018-04-30T12:15:41.576Z,16.20
2018-04-30T12:18:09.793Z,16.30
2018-04-30T12:20:38.050Z,16.20
2018-04-30T12:23:06.277Z,16.40
2018-04-30T12:25:34.541Z,16.20
2018-04-30T12:28:02.768Z,16.20
2018-04-30T12:30:30.993Z,16.30
2018-04-30T12:32:59.241Z,16.40
2018-04-30T12:35:27.446Z,16.40
2018-04-30T12:37:56.441Z,16.20
2018-04-30T12:40:24.663Z,16.20
2018-04-30T12:42:52.913Z,16.00
2018-04-30T12:45:21.129Z,16.00
2018-04-30T12:47:50.238Z,15.70
2018-04-30T12:50:19.258Z,15.30
2018-04-30T12:52:47.503Z,15.30
2018-04-30T12:55:15.732Z,15.30
2018-04-30T12:57:44.795Z,15.10
2018-04-30T13:00:13.025Z,15.10
2018-04-30T13:02:41.249Z,15.10
2018-04-30T13:05:09.508Z,15.30
2018-04-30T13:07:37.718Z,15.50
2018-04-30T13:10:05.939Z,15.50
2018-04-30T13:12:34.149Z,15.50
2018-04-30T13:15:03.133Z,15.20
2018-04-30T13:17:31.353Z,15.20
2018-04-30T13:19:59.590Z,15.30
2018-04-30T13:22:27.809Z,15.20
2018-04-30T13:24:56.841Z,15.30
2018-04-30T13:27:25.086Z,15.30
2018-04-30T13:29:53.290Z,14.90
2018-04-30T13:32:22.277Z,15.10
2018-04-30T13:34:54.533Z,15.10
2018-04-30T13:37:22.794Z,15.00
2018-04-30T13:39:50.973Z,15.00
2018-04-30T13:42:19.997Z,15.10
2018-04-30T13:44:49.231Z,15.10
2018-04-30T13:47:17.542Z,15.00
2018-04-30T13:49:45.773Z,15.00
2018-04-30T13:52:14.009Z,15.30
2018-04-30T13:54:43.170Z,15.40
2018-04-30T13:57:11.280Z,15.10
2018-04-30T13:59:39.501Z,15.00
2018-04-30T14:02:07.757Z,15.10
2018-04-30T14:04:35.978Z,15.50
2018-04-30T14:07:04.188Z,15.30
2018-04-30T14:09:33.217Z,15.50
2018-04-30T14:12:01.421Z,15.50
2018-04-30T14:14:29.644Z,15.70
2018-04-30T14:16:57.849Z,15.70
2018-04-30T14:19:27.319Z,15.70
2018-04-30T14:21:56.253Z,16.10
2018-04-30T14:24:24.468Z,16.10
2018-04-30T14:26:53.510Z,16.10
2018-04-30T14:29:21.737Z,16.10
2018-04-30T14:31:50.068Z,16.10
2018-04-30T14:34:18.317Z,16.00
2018-04-30T14:36:46.554Z,16.20
2018-04-30T14:39:14.758Z,16.00
2018-04-30T14:41:42.982Z,16.00
2018-04-30T14:44:11.188Z,16.10
2018-04-30T14:46:40.165Z,16.20
2018-04-30T14:49:08.392Z,16.20
2018-04-30T14:51:37.393Z,16.20
2018-04-30T14:54:06.386Z,16.40
2018-04-30T14:56:34.592Z,16.40
2018-04-30T14:59:02.800Z,16.50
2018-04-30T15:01:31.022Z,16.50
2018-04-30T15:03:59.238Z,16.60
2018-04-30T15:06:28.226Z,16.80
2018-04-30T15:08:56.484Z,16.70
2018-04-30T15:11:24.689Z,16.80
2018-04-30T15:13:52.901Z,16.70
2018-04-30T15:16:21.130Z,16.60
2018-04-30T15:18:49.369Z,16.70
2018-04-30T15:21:17.571Z,16.80
2018-04-30T15:23:46.568Z,16.80
2018-04-30T15:26:14.785Z,16.80
2018-04-30T15:28:42.997Z,16.80
2018-04-30T15:31:11.222Z,16.80
2018-04-30T15:33:39.437Z,16.90
2018-04-30T15:36:08.448Z,16.90
2018-04-30T15:38:37.414Z,17.00
2018-04-30T15:41:05.625Z,17.00
2018-04-30T15:43:34.607Z,16.90
2018-04-30T15:46:02.813Z,16.90
2018-04-30T15:48:31.036Z,17.00
2018-04-30T15:50:59.249Z,16.90
2018-04-30T15:53:27.737Z,16.90
2018-04-30T15:55:56.697Z,16.90
2018-04-30T15:58:25.689Z,16.90
2018-04-30T16:00:53.897Z,16.90
2018-04-30T16:03:22.884Z,16.90
2018-04-30T16:05:51.161Z,16.90
2018-04-30T16:08:19.400Z,17.00
2018-04-30T16:10:47.641Z,17.00
2018-04-30T16:13:15.846Z,17.00
2018-04-30T16:15:44.841Z,17.10
2018-04-30T16:18:13.075Z,17.00
2018-04-30T16:20:41.281Z,17.10
2018-04-30T16:23:09.488Z,17.10
2018-04-30T16:25:37.701Z,17.00
2018-04-30T16:28:06.678Z,16.90
2018-04-30T16:30:34.894Z,16.90
2018-04-30T16:33:03.864Z,16.90
2018-04-30T16:35:32.085Z,16.90
2018-04-30T16:38:01.081Z,16.90
2018-04-30T16:40:29.295Z,16.90
2018-04-30T16:42:58.277Z,16.90
2018-04-30T16:45:26.505Z,16.80
2018-04-30T16:47:54.721Z,16.90
2018-04-30T16:50:23.745Z,16.90
2018-04-30T16:52:51.937Z,16.90
2018-04-30T16:55:20.154Z,17.00
2018-04-30T16:57:49.174Z,17.00
2018-04-30T17:00:17.402Z,16.90
2018-04-30T17:02:46.472Z,17.00
2018-04-30T17:05:14.808Z,17.00
2018-04-30T17:07:42.982Z,16.90
2018-04-30T17:10:11.197Z,16.90
2018-04-30T17:12:39.409Z,16.90
2018-04-30T17:15:08.393Z,16.80
2018-04-30T17:17:36.605Z,16.80
2018-04-30T17:20:05.599Z,16.80
2018-04-30T17:22:34.590Z,16.90
2018-04-30T17:25:02.806Z,16.90
2018-04-30T17:27:31.029Z,16.80
2018-04-30T17:29:59.245Z,16.80
2018-04-30T17:32:27.512Z,16.80
2018-04-30T17:34:56.183Z,16.90
2018-04-30T17:37:24.391Z,16.90
2018-04-30T17:39:52.627Z,16.90
2018-04-30T17:42:20.843Z,16.90
2018-04-30T17:44:49.069Z,16.90
2018-04-30T17:47:18.061Z,16.90
2018-04-30T17:49:46.288Z,16.80
2018-04-30T17:52:15.373Z,16.80
2018-04-30T17:54:44.274Z,16.70
2018-04-30T17:57:12.510Z,16.70
2018-04-30T17:59:41.485Z,16.80
2018-04-30T18:02:10.105Z,16.70
2018-04-30T18:04:39.086Z,16.70
2018-04-30T18:07:07.348Z,16.70
2018-04-30T18:09:35.521Z,16.70
2018-04-30T18:12:03.849Z,16.70
2018-04-30T18:14:32.094Z,16.70
2018-04-30T18:17:00.380Z,16.70
2018-04-30T18:19:29.363Z,16.60
2018-04-30T18:21:58.356Z,16.70
2018-04-30T18:24:27.367Z,16.70
2018-04-30T18:26:56.367Z,16.70
2018-04-30T18:29:24.564Z,16.70
2018-04-30T18:31:53.583Z,16.60
2018-04-30T18:34:21.866Z,16.60
2018-04-30T18:36:50.105Z,16.70
2018-04-30T18:39:19.072Z,16.60
2018-04-30T18:41:47.492Z,16.60
2018-04-30T18:44:15.629Z,16.60
2018-04-30T18:46:43.921Z,16.60
2018-04-30T18:49:12.893Z,16.70
2018-04-30T18:51:41.113Z,16.70
2018-04-30T18:54:10.084Z,16.50
2018-04-30T18:56:38.295Z,16.50
2018-04-30T18:59:07.273Z,16.50
2018-04-30T19:01:35.491Z,16.50
2018-04-30T19:04:03.710Z,16.30
2018-04-30T19:06:31.951Z,16.40
2018-04-30T19:09:00.168Z,16.40
2018-04-30T19:11:29.147Z,16.30
2018-04-30T19:13:57.454Z,16.30
2018-04-30T19:16:25.648Z,16.20
2018-04-30T19:18:54.629Z,16.20
2018-04-30T19:21:22.852Z,16.20
2018-04-30T19:23:51.078Z,16.20
2018-04-30T19:26:19.309Z,16.20
2018-04-30T19:28:48.377Z,16.10
2018-04-30T19:31:16.628Z,16.10
2018-04-30T19:33:44.841Z,16.10
2018-04-30T19:36:13.054Z,16.10
2018-04-30T19:38:41.285Z,16.10
2018-04-30T19:41:09.513Z,16.00
2018-04-30T19:43:37.727Z,16.00
2018-04-30T19:46:05.934Z,16.00
2018-04-30T19:48:34.960Z,16.10
2018-04-30T19:51:03.901Z,16.00
2018-04-30T19:53:32.222Z,16.00
2018-04-30T19:56:00.509Z,16.00
2018-04-30T19:58:29.549Z,15.90
2018-04-30T20:00:59.101Z,15.90
2018-04-30T20:03:29.403Z,15.90
2018-04-30T20:05:58.433Z,15.90
2018-04-30T20:08:26.633Z,15.90
2018-04-30T20:10:54.851Z,15.90
2018-04-30T20:13:23.152Z,15.90
2018-04-30T20:15:51.394Z,15.90
2018-04-30T20:18:19.577Z,15.90
2018-04-30T20:20:47.825Z,16.00
2018-04-30T20:23:16.125Z,16.00
2018-04-30T20:25:44.389Z,16.00
2018-04-30T20:28:13.381Z,15.90
2018-04-30T20:30:41.612Z,15.90
2018-04-30T20:33:09.850Z,15.80
2018-04-30T20:35:39.009Z,15.80
2018-04-30T20:38:07.345Z,15.80
2018-04-30T20:40:35.557Z,15.70
2018-04-30T20:43:03.809Z,15.80
2018-04-30T20:45:32.091Z,15.90
2018-04-30T20:48:00.320Z,15.80
2018-04-30T20:50:29.391Z,15.80
2018-04-30T20:52:57.628Z,15.80
2018-04-30T20:55:26.620Z,15.70
2018-04-30T20:57:54.834Z,15.70
2018-04-30T21:00:23.053Z,15.70
2018-04-30T21:02:51.307Z,15.70
2018-04-30T21:05:19.574Z,15.70
2018-04-30T21:07:48.554Z,15.60
2018-04-30T21:10:17.682Z,15.50
2018-04-30T21:12:45.993Z,15.40
2018-04-30T21:15:14.214Z,15.40
2018-04-30T21:17:42.517Z,15.50
2018-04-30T21:20:10.658Z,15.50
2018-04-30T21:22:38.864Z,15.50
2018-04-30T21:25:07.893Z,15.40
2018-04-30T21:27:36.114Z,15.40
2018-04-30T21:30:04.350Z,15.40
2018-04-30T21:32:32.558Z,15.20
2018-04-30T21:35:00.783Z,15.10
2018-04-30T21:37:28.997Z,15.00
2018-04-30T21:39:57.209Z,15.00
2018-04-30T21:42:25.721Z,15.00
2018-04-30T21:44:53.991Z,15.00
2018-04-30T21:47:22.246Z,14.90
2018-04-30T21:49:51.225Z,14.60
2018-04-30T21:52:19.469Z,14.60
2018-04-30T21:54:47.697Z,14.60
2018-04-30T21:57:15.914Z,14.60
2018-04-30T21:59:44.131Z,14.60
2018-04-30T22:02:12.349Z,14.60
2018-04-30T22:04:40.565Z,14.60
2018-04-30T22:07:09.577Z,14.70
2018-04-30T22:09:38.566Z,14.90
2018-04-30T22:12:06.805Z,14.80
2018-04-30T22:14:35.741Z,15.00
2018-04-30T22:17:04.665Z,15.00
2018-04-30T22:19:33.678Z,15.00
2018-04-30T22:22:03.556Z,14.90
2018-04-30T22:24:31.784Z,14.80
2018-04-30T22:27:01.369Z,14.70
2018-04-30T22:29:30.356Z,14.80
2018-04-30T22:31:58.606Z,14.80
2018-04-30T22:34:27.595Z,15.00
2018-04-30T22:36:55.809Z,15.00
2018-04-30T22:39:24.897Z,15.00
2018-04-30T22:41:53.106Z,15.00
2018-04-30T22:44:22.689Z,15.00
2018-04-30T22:46:50.907Z,14.90
2018-04-30T22:49:19.966Z,14.90
2018-04-30T22:51:48.192Z,14.90
2018-04-30T22:54:17.185Z,14.70
2018-04-30T22:56:45.424Z,14.70
2018-04-30T22:59:13.650Z,14.70
2018-04-30T23:01:41.869Z,14.50
2018-04-30T23:04:10.861Z,14.50
2018-04-30T23:06:39.135Z,14.50
2018-04-30T23:09:07.314Z,14.60
2018-04-30T23:11:35.573Z,14.50
2018-04-30T23:14:03.794Z,14.60
2018-04-30T23:16:32.032Z,14.70
2018-04-30T23:19:00.253Z,14.60
2018-04-30T23:21:28.492Z,14.70
2018-04-30T23:23:57.480Z,14.50
2018-04-30T23:26:25.697Z,14.50
2018-04-30T23:28:53.923Z,14.50
2018-04-30T23:31:22.139Z,14.50
2018-04-30T23:33:50.371Z,14.40
2018-04-30T23:36:19.998Z,14.40
2018-04-30T23:38:48.221Z,14.40
2018-04-30T23:41:16.459Z,14.30
2018-04-30T23:43:44.801Z,14.30
2018-04-30T23:46:13.141Z,14.30
2018-04-30T23:48:41.359Z,14.10
2018-04-30T23:51:09.593Z,14.20
2018-04-30T23:53:38.578Z,14.30
2018-04-30T23:56:06.808Z,14.20
2018-04-30T23:58:35.021Z,14.10
